Time;durP1;ratioP1;P1;durP2;ratioP2;P2;SDS_P1;SDS_P2;PMS_P1;PMS_P2;Temp;Humidity;BMP_temperature;BMP_pressure;BME280_temperature;BME280_humidity;BME280_pressure;Samples;Min_cycle;Max_cycle;Signal;HPM_P1;HPM_P2
2022/04/09 00:00:07;;;;;;;7.75;2.33;;;;;;;8.44;54.31;100376.25;5116457;27;20086;-60
2022/04/09 00:02:36;;;;;;;12.60;2.75;;;;;;;8.45;54.85;100383.25;5121301;28;20055;-60
2022/04/09 00:05:05;;;;;;;8.20;3.10;;;;;;;8.44;55.03;100386.97;5109840;28;20047;-60
2022/04/09 00:07:33;;;;;;;7.53;2.25;;;;;;;8.43;54.40;100385.31;5114801;28;20079;-60
2022/04/09 00:10:00;;;;;;;9.18;2.65;;;;;;;8.43;54.96;100398.72;5109988;28;20111;-60
2022/04/09 00:12:28;;;;;;;9.90;2.75;;;;;;;8.42;54.87;100398.94;5119508;28;20047;-59
2022/04/09 00:14:56;;;;;;;9.93;2.58;;;;;;;8.41;54.35;100399.97;5123115;28;20423;-59
2022/04/09 00:17:24;;;;;;;10.50;2.83;;;;;;;8.41;54.83;100408.00;5110730;28;20076;-60
2022/04/09 00:19:53;;;;;;;9.40;2.28;;;;;;;8.35;54.76;100408.88;5120217;28;20103;-60
2022/04/09 00:22:20;;;;;;;10.32;2.28;;;;;;;8.38;54.31;100419.16;5118917;28;20059;-59
2022/04/09 00:24:48;;;;;;;8.65;2.50;;;;;;;8.38;54.33;100425.31;5116329;28;20060;-60
2022/04/09 00:27:16;;;;;;;10.85;2.53;;;;;;;8.36;55.20;100432.75;5127017;27;20058;-60
2022/04/09 00:29:43;;;;;;;10.57;2.20;;;;;;;8.34;54.91;100434.00;5123213;28;20044;-60
2022/04/09 00:32:11;;;;;;;10.23;3.13;;;;;;;8.34;54.97;100439.38;5120883;28;20044;-60
2022/04/09 00:34:39;;;;;;;13.68;3.63;;;;;;;8.32;55.32;100444.09;5104147;28;20140;-60
2022/04/09 00:37:08;;;;;;;8.85;2.53;;;;;;;8.31;55.22;100451.28;5108822;28;20078;-60
2022/04/09 00:39:35;;;;;;;14.80;2.72;;;;;;;8.30;55.20;100454.19;5114434;28;20064;-59
2022/04/09 00:42:04;;;;;;;16.83;2.90;;;;;;;8.26;54.54;100456.47;5122025;28;20107;-60
2022/04/09 00:44:32;;;;;;;11.55;2.63;;;;;;;8.28;54.84;100465.09;5111755;28;20047;-60
2022/04/09 00:46:59;;;;;;;16.48;3.00;;;;;;;8.28;55.12;100472.31;5117777;28;20089;-60
2022/04/09 00:49:28;;;;;;;10.77;3.13;;;;;;;8.26;54.96;100467.19;5116818;28;20047;-60
2022/04/09 00:51:57;;;;;;;7.10;2.45;;;;;;;8.26;55.10;100467.19;5120497;28;20102;-61
2022/04/09 00:54:29;;;;;;;10.82;2.40;;;;;;;8.25;55.01;100476.25;5111580;28;20052;-59
2022/04/09 00:57:01;;;;;;;11.98;2.88;;;;;;;8.26;54.90;100482.44;5116541;27;20162;-59
2022/04/09 00:59:31;;;;;;;10.98;2.80;;;;;;;8.25;54.41;100491.50;5106942;28;20101;-60
2022/04/09 01:01:59;;;;;;;11.65;3.58;;;;;;;8.24;55.11;100490.66;5115443;28;20068;-59
2022/04/09 01:04:28;;;;;;;8.93;2.03;;;;;;;8.24;55.05;100492.53;5115568;28;20055;-60
2022/04/09 01:06:56;;;;;;;9.23;2.63;;;;;;;8.23;54.92;100504.28;5107970;28;20078;-60
2022/04/09 01:09:24;;;;;;;11.60;3.05;;;;;;;8.21;54.71;100498.31;5113270;28;20212;-59
2022/04/09 01:11:54;;;;;;;12.90;2.38;;;;;;;8.20;55.15;100508.19;5115359;28;20083;-60
2022/04/09 01:14:22;;;;;;;12.02;3.13;;;;;;;8.19;55.08;100505.75;5120796;28;20051;-60
2022/04/09 01:16:50;;;;;;;11.15;2.42;;;;;;;8.20;55.08;100510.88;5103502;28;20116;-60
2022/04/09 01:19:17;;;;;;;12.15;2.38;;;;;;;8.19;55.19;100524.47;5114137;28;20044;-60
2022/04/09 01:21:48;;;;;;;13.13;3.42;;;;;;;8.19;54.82;100529.81;5112899;28;20126;-60
2022/04/09 01:24:17;;;;;;;12.65;2.55;;;;;;;8.18;54.58;100530.84;5121478;28;20145;-60
2022/04/09 01:26:45;;;;;;;12.75;3.75;;;;;;;8.15;54.82;100538.28;5107107;28;20082;-59
2022/04/09 01:29:13;;;;;;;12.02;3.40;;;;;;;8.16;54.60;100544.47;5108253;28;20040;-59
2022/04/09 01:31:41;;;;;;;8.75;2.47;;;;;;;8.16;54.82;100542.59;5120794;28;20075;-61
2022/04/09 01:34:13;;;;;;;13.18;2.83;;;;;;;8.16;55.14;100547.13;5121808;28;20047;-59
2022/04/09 01:36:41;;;;;;;11.95;3.30;;;;;;;8.14;54.77;100551.88;5108230;28;20075;-58
2022/04/09 01:39:09;;;;;;;11.32;2.85;;;;;;;8.13;54.68;100556.41;5115672;28;20047;-60
2022/04/09 01:41:38;;;;;;;11.85;2.75;;;;;;;8.12;54.63;100557.44;5121985;28;20044;-60
2022/04/09 01:44:06;;;;;;;7.53;2.05;;;;;;;8.14;55.20;100565.25;5122791;28;20051;-60
2022/04/09 01:46:34;;;;;;;9.30;2.85;;;;;;;8.12;54.65;100565.47;5120272;28;20055;-60
2022/04/09 01:49:02;;;;;;;10.23;2.95;;;;;;;8.12;54.73;100564.66;5114249;28;20066;-59
2022/04/09 01:51:30;;;;;;;10.63;2.38;;;;;;;8.11;54.42;100579.91;5116928;28;20081;-59
2022/04/09 01:53:58;;;;;;;10.70;2.22;;;;;;;8.11;55.02;100584.44;5122117;28;20069;-60
2022/04/09 01:56:25;;;;;;;16.38;3.17;;;;;;;8.11;54.85;100590.59;5120852;28;20083;-61
2022/04/09 01:58:54;;;;;;;11.52;2.45;;;;;;;7.97;55.10;100564.09;5121816;28;20522;-60
2022/04/09 02:01:22;;;;;;;9.13;3.00;;;;;;;8.12;54.91;100594.09;5113897;28;20086;-60
2022/04/09 02:03:50;;;;;;;10.30;2.47;;;;;;;8.10;55.09;100596.16;5109162;28;20093;-60
2022/04/09 02:06:18;;;;;;;11.15;2.80;;;;;;;8.10;54.64;100599.66;5111515;28;20055;-61
2022/04/09 02:08:45;;;;;;;10.85;3.45;;;;;;;8.10;54.98;100602.34;5116716;28;20083;-61
2022/04/09 02:11:14;;;;;;;12.13;3.10;;;;;;;8.08;54.67;100608.94;5117696;28;20520;-61
2022/04/09 02:13:42;;;;;;;13.63;2.58;;;;;;;8.07;54.41;100604.63;5121153;28;20058;-61
2022/04/09 02:16:11;;;;;;;10.95;2.88;;;;;;;8.04;55.59;100616.56;5111830;28;20063;-61
2022/04/09 02:18:39;;;;;;;15.90;3.10;;;;;;;8.04;54.77;100615.75;5116056;28;20192;-61
2022/04/09 02:21:07;;;;;;;10.90;3.33;;;;;;;7.99;54.73;100626.25;5119145;28;20048;-61
2022/04/09 02:23:34;;;;;;;9.60;2.13;;;;;;;8.02;54.86;100632.00;5108268;28;20116;-61
2022/04/09 02:26:02;;;;;;;8.73;2.55;;;;;;;7.97;55.24;100625.66;5107997;28;20048;-61
2022/04/09 02:28:32;;;;;;;10.32;2.60;;;;;;;7.96;54.64;100638.19;5121675;28;20059;-60
2022/04/09 02:31:00;;;;;;;11.70;2.50;;;;;;;7.98;54.72;100641.50;5114825;28;20044;-61
2022/04/09 02:33:29;;;;;;;12.80;3.05;;;;;;;7.97;55.47;100642.53;5105513;28;20107;-61
2022/04/09 02:35:56;;;;;;;13.00;2.50;;;;;;;7.95;54.67;100644.59;5120564;28;20039;-60
2022/04/09 02:38:25;;;;;;;14.20;3.40;;;;;;;7.92;55.04;100644.19;5125388;28;20047;-61
2022/04/09 02:40:53;;;;;;;8.45;2.30;;;;;;;7.94;55.80;100644.78;5119803;28;20042;-61
2022/04/09 02:43:20;;;;;;;10.40;2.30;;;;;;;7.93;55.22;100646.66;5113268;28;20106;-61
2022/04/09 02:45:48;;;;;;;12.73;3.13;;;;;;;7.94;55.40;100650.16;5114255;28;20138;-61
2022/04/09 02:48:16;;;;;;;10.20;2.42;;;;;;;7.92;54.96;100658.38;5118604;28;20081;-61
2022/04/09 02:50:45;;;;;;;8.75;2.42;;;;;;;7.91;55.24;100658.59;5125171;28;20048;-60
2022/04/09 02:53:13;;;;;;;16.65;3.53;;;;;;;7.91;55.02;100658.59;5125313;28;20075;-61
2022/04/09 02:55:40;;;;;;;12.90;2.75;;;;;;;7.92;54.99;100669.09;5120420;28;20048;-60
2022/04/09 02:58:08;;;;;;;12.15;2.08;;;;;;;7.90;54.99;100679.19;5109619;28;20044;-61
2022/04/09 03:00:36;;;;;;;12.02;3.05;;;;;;;7.90;55.50;100684.53;5112021;28;20126;-60
2022/04/09 03:03:04;;;;;;;13.95;4.03;;;;;;;7.90;55.66;100694.41;5124869;28;20047;-60
2022/04/09 03:05:32;;;;;;;9.77;2.78;;;;;;;7.89;55.39;100693.59;5111810;28;20048;-61
2022/04/09 03:08:01;;;;;;;8.77;2.03;;;;;;;7.89;54.89;100698.94;5111930;28;20039;-61
2022/04/09 03:10:29;;;;;;;9.35;2.38;;;;;;;7.84;54.82;100696.88;5115755;28;20056;-61
2022/04/09 03:12:58;;;;;;;8.32;2.25;;;;;;;7.88;54.53;100709.84;5123613;28;20047;-60
2022/04/09 03:15:26;;;;;;;11.63;2.83;;;;;;;7.85;54.98;100711.09;5120389;28;20130;-60
2022/04/09 03:17:54;;;;;;;14.98;4.35;;;;;;;7.69;54.95;100688.25;5118529;28;20044;-60
2022/04/09 03:20:22;;;;;;;9.85;2.67;;;;;;;7.83;55.38;100722.00;5113664;28;20051;-60
2022/04/09 03:22:50;;;;;;;9.07;2.33;;;;;;;7.83;54.90;100710.47;5123284;28;20047;-60
2022/04/09 03:25:19;;;;;;;13.20;2.60;;;;;;;7.84;54.63;100720.97;5118786;28;20040;-60
2022/04/09 03:27:46;;;;;;;8.68;2.58;;;;;;;7.83;55.31;100716.63;5113129;28;20090;-60
2022/04/09 03:30:14;;;;;;;8.15;2.25;;;;;;;7.83;54.78;100718.50;5114400;28;20143;-60
2022/04/09 03:32:43;;;;;;;9.82;2.45;;;;;;;7.83;54.66;100724.66;5125634;27;20114;-60
2022/04/09 03:35:12;;;;;;;7.90;2.78;;;;;;;7.84;55.13;100730.84;5114689;28;20496;-60
2022/04/09 03:37:41;;;;;;;11.88;2.20;;;;;;;7.83;54.88;100734.53;5123185;28;20495;-60
2022/04/09 03:40:10;;;;;;;7.97;2.35;;;;;;;7.81;54.51;100740.09;5113623;28;20385;-61
2022/04/09 03:42:39;;;;;;;12.63;2.78;;;;;;;7.82;54.74;100740.94;5110230;28;20445;-60
2022/04/09 03:45:07;;;;;;;5.60;1.90;;;;;;;7.80;55.41;100749.16;5130092;27;20043;-61
2022/04/09 03:47:35;;;;;;;9.38;3.25;;;;;;;7.80;54.73;100746.47;5122024;28;20098;-61
2022/04/09 03:50:03;;;;;;;9.15;2.08;;;;;;;7.80;55.20;100754.50;5114728;28;20071;-61
2022/04/09 03:52:31;;;;;;;10.50;2.50;;;;;;;7.78;55.15;100747.72;5119709;28;20047;-60
2022/04/09 03:54:59;;;;;;;13.82;2.90;;;;;;;7.78;54.69;100750.41;5122060;28;20511;-60
2022/04/09 03:57:26;;;;;;;11.43;2.58;;;;;;;7.77;55.47;100754.09;5107882;28;20055;-60
2022/04/09 03:59:57;;;;;;;10.13;2.47;;;;;;;7.75;55.14;100745.44;5113650;28;20143;-60
2022/04/09 04:02:26;;;;;;;11.48;2.88;;;;;;;7.77;55.16;100756.78;5119249;28;20048;-60
2022/04/09 04:04:54;;;;;;;9.95;2.50;;;;;;;7.73;54.88;100760.88;5123546;27;20073;-60
2022/04/09 04:07:23;;;;;;;11.32;2.63;;;;;;;7.73;55.06;100758.22;5119576;28;20086;-60
2022/04/09 04:09:51;;;;;;;8.48;3.92;;;;;;;7.71;55.09;100765.63;5119549;28;20059;-60
2022/04/09 04:12:19;;;;;;;14.25;2.65;;;;;;;7.71;55.36;100777.13;5112381;28;20075;-60
2022/04/09 04:14:46;;;;;;;11.13;2.97;;;;;;;7.70;55.57;100774.66;5116585;28;20089;-60
2022/04/09 04:17:15;;;;;;;8.50;2.65;;;;;;;7.68;55.29;100780.22;5112200;28;20101;-60
2022/04/09 04:19:43;;;;;;;9.77;3.10;;;;;;;7.67;55.35;100783.94;5123364;27;20043;-60
2022/04/09 04:22:11;;;;;;;10.57;2.90;;;;;;;7.66;55.31;100782.28;5114389;27;20048;-60
2022/04/09 04:24:39;;;;;;;12.38;2.97;;;;;;;7.66;55.05;100789.47;5115535;28;20134;-60
2022/04/09 04:27:07;;;;;;;12.75;2.70;;;;;;;7.64;55.22;100795.03;5123300;28;20063;-60
2022/04/09 04:29:35;;;;;;;11.05;2.30;;;;;;;7.64;55.43;100802.22;5109475;28;20347;-60
2022/04/09 04:32:03;;;;;;;8.98;3.03;;;;;;;7.63;55.36;100801.41;5116112;28;20067;-60
2022/04/09 04:34:32;;;;;;;17.73;3.20;;;;;;;7.62;55.56;100802.44;5117009;28;20082;-60
2022/04/09 04:37:00;;;;;;;10.80;2.45;;;;;;;7.60;55.59;100807.16;5118825;28;20086;-60
2022/04/09 04:39:28;;;;;;;12.13;2.55;;;;;;;7.60;55.17;100807.16;5114106;28;20186;-60
2022/04/09 04:41:55;;;;;;;17.85;4.70;;;;;;;7.60;55.27;100809.00;5117590;28;20070;-60
2022/04/09 04:44:23;;;;;;;9.63;2.35;;;;;;;7.59;55.57;100813.53;5108498;28;20528;-60
2022/04/09 04:46:51;;;;;;;10.52;2.60;;;;;;;7.58;55.62;100814.56;5111314;28;20145;-59
2022/04/09 04:49:19;;;;;;;9.15;2.65;;;;;;;7.59;54.98;100821.56;5117614;28;20082;-60
2022/04/09 04:51:48;;;;;;;12.35;2.83;;;;;;;7.58;55.51;100825.25;5110743;28;20078;-59
2022/04/09 04:54:16;;;;;;;12.48;3.00;;;;;;;7.58;55.60;100825.25;5108263;28;20051;-60
2022/04/09 04:56:44;;;;;;;8.95;2.97;;;;;;;7.57;55.78;100838.84;5109222;28;20468;-60
2022/04/09 04:59:11;;;;;;;15.60;3.15;;;;;;;7.54;55.50;100848.09;5104208;28;20083;-59
2022/04/09 05:01:40;;;;;;;8.98;1.98;;;;;;;7.54;55.80;100850.75;5108899;28;20071;-59
2022/04/09 05:04:09;;;;;;;11.52;2.40;;;;;;;7.63;55.38;100846.06;5117613;28;20046;-59
2022/04/09 05:06:37;;;;;;;8.48;2.20;;;;;;;7.69;54.82;100845.25;5117703;28;20756;-60
2022/04/09 05:09:06;;;;;;;8.43;2.15;;;;;;;7.74;55.26;100854.31;5107125;28;20071;-60
2022/04/09 05:11:34;;;;;;;10.25;3.03;;;;;;;7.74;55.00;100848.97;5103223;28;20122;-60
2022/04/09 05:14:03;;;;;;;9.05;2.67;;;;;;;7.75;54.51;100857.81;5112423;28;20076;-60
2022/04/09 05:16:31;;;;;;;8.05;2.60;;;;;;;7.72;54.59;100864.38;5118978;28;20051;-59
2022/04/09 05:18:59;;;;;;;7.60;2.15;;;;;;;7.70;55.02;100855.75;5108018;28;20116;-59
2022/04/09 05:21:27;;;;;;;8.80;2.20;;;;;;;7.91;54.39;100881.50;5119061;28;20047;-59
2022/04/09 05:23:54;;;;;;;12.70;2.55;;;;;;;8.02;53.69;100880.09;5120116;28;20083;-59
2022/04/09 05:26:23;;;;;;;6.85;2.10;;;;;;;8.06;53.92;100866.09;5111237;28;20084;-59
2022/04/09 05:28:53;;;;;;;11.55;2.60;;;;;;;8.31;53.82;100884.22;5103455;28;20107;-59
2022/04/09 05:31:25;;;;;;;9.45;3.00;;;;;;;8.46;52.57;100891.03;5114135;28;20077;-59
2022/04/09 05:33:53;;;;;;;9.88;3.20;;;;;;;8.61;52.64;100882.78;4752544;28;10000329;-59
2022/04/09 05:36:21;;;;;;;10.45;2.97;;;;;;;8.73;51.99;100888.31;5110539;28;20052;-59
2022/04/09 05:38:49;;;;;;;9.05;2.53;;;;;;;8.78;51.95;100900.03;5112547;28;20071;-58
2022/04/09 05:41:17;;;;;;;11.48;2.47;;;;;;;8.72;52.50;100905.41;5115543;28;20056;-60
2022/04/09 05:43:46;;;;;;;11.85;2.72;;;;;;;8.60;53.11;100910.59;5114194;28;20052;-60
2022/04/09 05:46:13;;;;;;;10.88;2.40;;;;;;;8.51;52.71;100929.78;5106508;28;20758;-61
2022/04/09 05:48:41;;;;;;;13.15;2.58;;;;;;;8.39;53.38;100925.03;5114640;28;20093;-61
2022/04/09 05:51:09;;;;;;;13.40;2.92;;;;;;;8.16;54.97;100928.06;5110351;28;20070;-62
2022/04/09 05:53:37;;;;;;;19.88;3.05;;;;;;;8.12;55.39;100934.84;5111289;28;20116;-60
2022/04/09 05:56:05;;;;;;;10.70;2.85;;;;;;;8.09;55.54;100943.28;5118502;28;20075;-62
2022/04/09 05:58:34;;;;;;;8.90;2.40;;;;;;;8.08;55.18;100944.31;5118205;28;20126;-60
2022/04/09 06:01:03;;;;;;;12.25;2.80;;;;;;;8.07;55.30;100947.22;5112759;28;20079;-60
2022/04/09 06:03:32;;;;;;;14.10;2.53;;;;;;;8.05;54.91;100944.72;5119606;28;20048;-59
2022/04/09 06:06:00;;;;;;;15.27;2.83;;;;;;;8.00;55.56;100949.03;5109203;28;20101;-61
2022/04/09 06:08:28;;;;;;;16.50;3.40;;;;;;;7.98;55.65;100959.13;5114172;28;20075;-62
2022/04/09 06:10:56;;;;;;;14.90;3.25;;;;;;;7.97;56.19;100963.66;5109858;28;20055;-61
2022/04/09 06:13:23;;;;;;;12.27;2.72;;;;;;;7.97;56.10;100958.31;5118267;28;20094;-62
2022/04/09 06:15:52;;;;;;;14.45;3.28;;;;;;;8.01;55.49;100964.06;5119261;28;20048;-60
2022/04/09 06:18:21;;;;;;;15.48;2.97;;;;;;;8.04;55.69;100961.00;5119068;28;20432;-62
2022/04/09 06:20:48;;;;;;;16.00;3.38;;;;;;;8.04;55.20;100969.03;5120522;28;20079;-60
2022/04/09 06:23:16;;;;;;;17.55;2.78;;;;;;;8.03;56.16;100970.88;5117626;28;20054;-60
2022/04/09 06:25:44;;;;;;;14.82;3.00;;;;;;;8.02;55.75;100963.03;5107151;28;20138;-61
2022/04/09 06:28:13;;;;;;;11.82;2.72;;;;;;;8.05;56.08;100968.81;5111469;28;20143;-59
2022/04/09 06:30:41;;;;;;;11.05;3.13;;;;;;;8.05;55.65;100986.72;5118852;28;20055;-59
2022/04/09 06:33:09;;;;;;;11.65;2.85;;;;;;;8.05;55.59;100984.88;5116297;28;20052;-60
2022/04/09 06:35:38;;;;;;;12.70;3.35;;;;;;;8.05;56.00;100984.88;5120738;28;20079;-60
2022/04/09 06:38:06;;;;;;;18.33;3.75;;;;;;;8.05;56.29;100995.59;5115984;28;20131;-59
2022/04/09 06:40:34;;;;;;;10.75;2.53;;;;;;;8.04;56.22;100993.94;5116008;28;20663;-60
2022/04/09 06:43:02;;;;;;;13.38;2.80;;;;;;;8.04;56.11;101001.97;5122294;28;20238;-61
2022/04/09 06:45:30;;;;;;;13.07;2.50;;;;;;;8.06;55.82;101009.78;5122435;28;20082;-61
2022/04/09 06:47:58;;;;;;;8.68;2.58;;;;;;;8.06;56.14;101007.13;5118305;28;20135;-61
2022/04/09 06:50:25;;;;;;;11.93;3.05;;;;;;;8.09;56.27;101006.72;5116945;28;20134;-61
2022/04/09 06:52:54;;;;;;;7.40;2.67;;;;;;;8.13;56.03;101014.13;5122122;28;20082;-61
2022/04/09 06:55:25;;;;;;;11.98;3.33;;;;;;;8.16;55.88;101015.59;5122292;28;20047;-60
2022/04/09 06:58:01;;;;;;;7.53;2.28;;;;;;;8.16;56.30;101021.78;5119472;28;20455;-61
2022/04/09 07:00:34;;;;;;;14.75;2.60;;;;;;;8.18;56.18;101021.56;5108980;28;20161;-61
2022/04/09 07:03:02;;;;;;;14.40;2.95;;;;;;;8.17;56.47;101033.31;5104653;28;20044;-60
2022/04/09 07:05:30;;;;;;;20.00;3.95;;;;;;;8.18;57.09;101034.94;5117690;28;20055;-59
2022/04/09 07:08:01;;;;;;;10.60;2.92;;;;;;;8.21;56.90;101039.06;5107239;28;20150;-60
2022/04/09 07:10:29;;;;;;;11.48;2.20;;;;;;;8.24;56.91;101041.34;5103633;28;20055;-60
2022/04/09 07:12:57;;;;;;;9.65;2.20;;;;;;;8.23;56.96;101040.53;5102253;28;20052;-61
2022/04/09 07:15:25;;;;;;;15.27;3.20;;;;;;;8.24;57.60;101044.84;5117032;28;20096;-62
2022/04/09 07:17:52;;;;;;;12.85;3.53;;;;;;;8.25;57.10;101045.69;5118410;28;20453;-61
2022/04/09 07:20:20;;;;;;;9.02;2.45;;;;;;;8.23;56.81;101051.25;5121421;28;20131;-61
2022/04/09 07:22:48;;;;;;;8.10;2.60;;;;;;;8.22;56.65;101046.09;5117173;28;20059;-61
2022/04/09 07:25:17;;;;;;;12.27;2.28;;;;;;;8.24;57.20;101049.38;5120011;28;20048;-61
2022/04/09 07:27:46;;;;;;;9.30;3.03;;;;;;;8.27;57.35;101052.47;5121535;28;20051;-62
2022/04/09 07:30:16;;;;;;;14.65;2.55;;;;;;;8.25;56.79;101057.22;5121005;28;20075;-62
2022/04/09 07:32:44;;;;;;;11.15;2.15;;;;;;;8.25;57.00;101061.75;5120477;28;20056;-62
2022/04/09 07:35:14;;;;;;;11.20;2.85;;;;;;;8.25;57.11;101067.09;5116957;28;20115;-62
2022/04/09 07:37:43;;;;;;;11.55;2.83;;;;;;;8.26;57.05;101074.09;5108193;28;20087;-62
2022/04/09 07:40:12;;;;;;;10.70;2.85;;;;;;;8.30;57.36;101059.28;5116827;28;20128;-60
2022/04/09 07:42:44;;;;;;;9.63;2.97;;;;;;;8.35;56.95;101071.09;5115735;28;20536;-61
2022/04/09 07:45:13;;;;;;;11.65;2.58;;;;;;;8.35;56.62;101073.75;5108394;28;20131;-63
2022/04/09 07:47:41;;;;;;;15.95;3.05;;;;;;;8.40;57.62;101073.97;5113240;28;20047;-61
2022/04/09 07:50:10;;;;;;;10.50;2.88;;;;;;;8.42;57.47;101079.13;5116643;28;20066;-61
2022/04/09 07:52:39;;;;;;;9.68;2.53;;;;;;;8.42;57.42;101084.50;5115316;28;20044;-61
2022/04/09 07:55:08;;;;;;;9.77;2.72;;;;;;;8.42;57.25;101079.97;5109462;28;20341;-61
2022/04/09 07:57:36;;;;;;;13.93;2.80;;;;;;;8.43;56.71;101081.59;5119866;28;20047;-61
2022/04/09 08:00:06;;;;;;;8.40;2.20;;;;;;;8.39;57.14;101079.53;5104353;28;20117;-60
2022/04/09 08:02:34;;;;;;;13.07;2.83;;;;;;;8.41;57.04;101082.84;5121059;28;20078;-60
2022/04/09 08:05:02;;;;;;;10.73;3.08;;;;;;;8.42;57.51;101082.63;5119597;28;20044;-58
2022/04/09 08:07:30;;;;;;;11.35;3.03;;;;;;;8.40;57.41;101082.00;5118479;28;20058;-57
2022/04/09 08:09:58;;;;;;;12.13;2.50;;;;;;;8.38;57.29;101086.75;5103968;28;20091;-59
2022/04/09 08:12:26;;;;;;;10.98;3.42;;;;;;;8.41;57.11;101086.34;5121201;28;20082;-60
2022/04/09 08:14:53;;;;;;;8.80;2.70;;;;;;;8.35;57.74;101094.34;5121100;28;20086;-58
2022/04/09 08:17:22;;;;;;;16.85;3.08;;;;;;;8.38;58.02;101088.59;5106596;28;20111;-58
2022/04/09 08:19:50;;;;;;;12.18;2.80;;;;;;;8.33;57.48;101097.22;5110066;28;20386;-59
2022/04/09 08:22:20;;;;;;;13.23;2.85;;;;;;;8.33;58.12;101091.88;5105589;28;20139;-59
2022/04/09 08:24:48;;;;;;;11.77;3.10;;;;;;;8.32;57.81;101108.13;5105955;28;20048;-59
2022/04/09 08:27:15;;;;;;;13.88;2.95;;;;;;;8.37;56.86;101101.16;5105765;28;20082;-58
2022/04/09 08:29:43;;;;;;;10.60;2.90;;;;;;;8.34;57.00;101109.59;5111683;28;20051;-61
2022/04/09 08:32:12;;;;;;;11.90;2.67;;;;;;;8.34;57.30;101117.63;5114675;28;20138;-60
2022/04/09 08:34:41;;;;;;;15.45;3.22;;;;;;;8.41;56.85;101115.81;5115674;28;20067;-62
2022/04/09 08:37:10;;;;;;;14.25;2.85;;;;;;;8.45;56.80;101110.88;5117051;28;20079;-61
2022/04/09 08:39:38;;;;;;;12.13;2.60;;;;;;;8.44;56.22;101123.44;5120035;28;20051;-62
2022/04/09 08:42:06;;;;;;;9.68;2.95;;;;;;;8.55;56.67;101118.53;5116388;28;20082;-62
2022/04/09 08:44:35;;;;;;;11.85;3.30;;;;;;;8.63;55.72;101116.47;5104086;28;20052;-61
2022/04/09 08:47:03;;;;;;;11.60;3.45;;;;;;;8.62;55.23;101122.03;5106891;28;20067;-61
2022/04/09 08:49:37;;;;;;;10.90;2.50;;;;;;;8.60;55.37;101127.59;5116321;28;20047;-62
2022/04/09 08:52:09;;;;;;;11.60;3.03;;;;;;;8.59;55.07;101127.81;5116211;28;20122;-61
2022/04/09 08:54:37;;;;;;;10.77;2.53;;;;;;;8.59;55.10;101138.53;5108767;28;20048;-60
2022/04/09 08:57:06;;;;;;;9.90;2.42;;;;;;;8.60;54.72;101129.47;5120736;28;20468;-62
2022/04/09 08:59:34;;;;;;;11.70;2.97;;;;;;;8.58;54.52;101139.56;5110136;28;20067;-62
2022/04/09 09:02:02;;;;;;;7.90;1.70;;;;;;;8.56;54.54;101139.75;5101726;28;20087;-59
2022/04/09 09:04:30;;;;;;;8.68;2.58;;;;;;;8.55;53.93;101143.47;5118820;28;20058;-61
2022/04/09 09:07:18;;;;;;;13.05;3.05;;;;;;;8.54;54.24;101143.66;5117294;28;20116;-62
2022/04/09 09:09:46;;;;;;;7.13;1.92;;;;;;;8.53;53.84;101155.41;5113332;28;20233;-61
2022/04/09 09:12:27;;;;;;;5.35;1.50;;;;;;;8.53;54.01;101155.41;5115157;28;20083;-62
2022/04/09 09:14:55;;;;;;;8.00;2.38;;;;;;;8.52;52.70;101151.06;5112312;28;20105;-63
2022/04/09 09:17:28;;;;;;;8.73;1.80;;;;;;;8.51;52.75;101152.91;5108318;28;20083;-62
2022/04/09 09:19:55;;;;;;;8.65;2.67;;;;;;;8.51;53.87;101152.09;5120241;28;20047;-62
2022/04/09 09:22:37;;;;;;;13.75;2.20;;;;;;;8.54;52.72;101165.09;5110848;28;20095;-62
2022/04/09 09:25:07;;;;;;;10.02;2.20;;;;;;;8.54;52.32;101163.22;5114365;28;20062;-63
2022/04/09 09:27:35;;;;;;;5.68;2.25;;;;;;;8.52;51.43;101157.25;5117677;28;20055;-61
2022/04/09 09:30:04;;;;;;;7.40;1.77;;;;;;;8.59;51.51;101160.78;5107657;28;20115;-62
2022/04/09 09:32:31;;;;;;;9.90;1.80;;;;;;;8.64;51.77;101154.81;5114551;28;20120;-62
2022/04/09 09:35:00;;;;;;;5.50;2.03;;;;;;;8.61;52.06;101164.09;5108238;28;20470;-63
2022/04/09 09:37:30;;;;;;;11.23;2.67;;;;;;;8.62;52.13;101168.41;5114385;28;20052;-63
2022/04/09 09:39:59;;;;;;;7.50;1.50;;;;;;;8.62;50.89;101170.28;5117199;28;20065;-62
2022/04/09 09:42:27;;;;;;;5.65;1.42;;;;;;;8.61;49.85;101163.25;5116633;28;20179;-62
2022/04/09 09:44:55;;;;;;;6.18;1.63;;;;;;;8.63;50.36;101174.59;5111991;28;20122;-61
2022/04/09 09:47:22;;;;;;;10.48;2.08;;;;;;;8.66;48.37;101169.66;5117224;28;20044;-61
2022/04/09 09:49:55;;;;;;;4.57;1.83;;;;;;;8.67;47.90;101175.81;5127265;28;20075;-62
2022/04/09 09:52:34;;;;;;;7.63;2.28;;;;;;;8.67;48.72;101187.38;5117653;28;20047;-62
2022/04/09 09:55:06;;;;;;;4.90;1.52;;;;;;;8.68;48.77;101172.13;5116082;28;20052;-61
2022/04/09 09:57:34;;;;;;;5.80;1.38;;;;;;;8.68;48.06;101186.34;5124858;28;20047;-60
2022/04/09 10:00:05;;;;;;;12.60;1.77;;;;;;;8.71;48.20;101171.72;5126060;28;20051;-63
2022/04/09 10:02:33;;;;;;;4.88;1.40;;;;;;;8.73;47.07;101169.66;5125754;28;20059;-62
2022/04/09 10:05:01;;;;;;;8.43;1.70;;;;;;;8.71;46.66;101169.84;5121513;28;20135;-62
2022/04/09 10:07:29;;;;;;;5.88;1.60;;;;;;;8.75;45.81;101178.31;5118713;28;20080;-64
2022/04/09 10:09:57;;;;;;;7.47;1.38;;;;;;;8.76;46.27;101178.13;5117141;28;20128;-63
2022/04/09 10:12:26;;;;;;;5.47;1.77;;;;;;;8.75;45.31;101179.16;5112601;28;20043;-63
2022/04/09 10:14:55;;;;;;;4.85;1.65;;;;;;;8.74;45.06;101182.84;5120068;28;20078;-65
2022/04/09 10:17:24;;;;;;;5.57;1.27;;;;;;;8.75;44.99;101179.16;5116553;28;20086;-63
2022/04/09 10:19:55;;;;;;;3.67;1.92;;;;;;;8.80;46.10;101173.19;5109423;28;20048;-63
2022/04/09 10:22:25;;;;;;;6.68;1.33;;;;;;;8.77;45.27;101179.75;5107785;28;20076;-63
2022/04/09 10:24:56;;;;;;;6.72;1.48;;;;;;;8.82;45.35;101171.13;5113263;28;20094;-64
2022/04/09 10:27:38;;;;;;;8.20;1.33;;;;;;;8.86;44.50;101190.31;5124559;28;20059;-63
2022/04/09 10:30:19;;;;;;;3.63;1.70;;;;;;;8.84;44.83;101178.97;5123644;28;20042;-64
2022/04/09 10:32:50;;;;;;;4.50;1.20;;;;;;;8.84;44.43;101177.09;5122174;28;20051;-63
2022/04/09 10:35:30;;;;;;;4.30;1.40;;;;;;;8.88;43.92;101178.34;5120536;28;20040;-64
2022/04/09 10:38:19;;;;;;;8.35;1.75;;;;;;;8.88;44.58;101186.41;5119786;28;20047;-64
2022/04/09 10:41:23;;;;;;;3.67;1.33;;;;;;;8.90;44.58;101184.34;5119923;28;20075;-66
2022/04/09 10:43:52;;;;;;;5.28;1.27;;;;;;;8.94;44.56;101179.41;5120339;28;20047;-65
2022/04/09 10:46:31;;;;;;;8.00;1.38;;;;;;;8.97;44.73;101168.28;5125435;28;20101;-64
2022/04/09 10:49:16;;;;;;;3.58;1.13;;;;;;;8.92;43.01;101195.69;5116705;28;20048;-67
2022/04/09 10:52:11;;;;;;;5.18;1.20;;;;;;;8.96;42.38;101193.44;5117745;28;20059;-64
2022/04/09 10:54:41;;;;;;;3.30;1.00;;;;;;;8.92;41.99;101205.59;5123682;28;20483;-63
2022/04/09 10:57:10;;;;;;;3.83;1.13;;;;;;;8.90;42.41;101188.88;5113119;28;20075;-64
2022/04/09 10:59:41;;;;;;;1.88;0.75;;;;;;;8.91;42.54;101194.03;5126436;28;20459;-64
2022/04/09 11:02:10;;;;;;;4.82;1.30;;;;;;;8.92;42.51;101193.00;5124170;28;20050;-65
2022/04/09 11:04:43;;;;;;;9.07;1.13;;;;;;;8.93;42.28;101197.34;5124929;28;20047;-63
2022/04/09 11:07:15;;;;;;;3.17;1.40;;;;;;;8.93;40.83;101188.47;5117838;28;20051;-64
2022/04/09 11:09:57;;;;;;;3.58;1.05;;;;;;;8.96;41.39;101207.66;5108656;28;20476;-64
2022/04/09 11:12:27;;;;;;;4.10;1.33;;;;;;;8.94;40.04;101201.66;5105356;28;20052;-64
2022/04/09 11:14:58;;;;;;;7.65;1.45;;;;;;;8.97;40.41;101203.94;5114500;28;20043;-64
2022/04/09 11:17:28;;;;;;;4.57;1.35;;;;;;;9.03;41.13;101195.09;5111473;28;20065;-63
2022/04/09 11:20:00;;;;;;;4.97;1.63;;;;;;;9.04;41.40;101180.66;5120912;28;20054;-63
2022/04/09 11:22:33;;;;;;;4.07;0.93;;;;;;;9.13;41.50;101216.16;5118443;28;20048;-64
2022/04/09 11:25:01;;;;;;;6.90;1.60;;;;;;;9.19;41.04;101209.16;5124324;28;20055;-63
2022/04/09 11:27:29;;;;;;;3.65;1.05;;;;;;;9.20;40.31;101202.75;5125314;28;20418;-64
2022/04/09 11:29:59;;;;;;;2.75;1.30;;;;;;;9.20;39.60;101214.31;5116695;28;20470;-64
2022/04/09 11:32:28;;;;;;;2.47;1.00;;;;;;;9.14;39.31;101224.00;5110446;28;20074;-64
2022/04/09 11:34:58;;;;;;;1.88;0.95;;;;;;;9.16;40.04;101221.09;5119337;28;20084;-64
2022/04/09 11:37:29;;;;;;;1.83;0.80;;;;;;;9.18;39.83;101224.41;5114541;28;20040;-63